Time;durP1;ratioP1;P1;durP2;ratioP2;P2;SDS_P1;SDS_P2;PMS_P1;PMS_P2;Temp;Humidity;BMP_temperature;BMP_pressure;BME280_temperature;BME280_humidity;BME280_pressure;Samples;Min_cycle;Max_cycle;Signal;HPM_P1;HPM_P2
2021/09/30 00:00:18;;;;;;;4.80;2.50;;;;;;;13.30;60.70;102286.81;4973452;28;123946;-67
2021/09/30 00:02:46;;;;;;;6.38;2.60;;;;;;;13.30;60.74;102292.16;4956109;28;122863;-67
2021/09/30 00:05:13;;;;;;;8.90;2.63;;;;;;;13.27;60.60;102292.19;4972551;28;114494;-67
2021/09/30 00:07:40;;;;;;;4.55;2.05;;;;;;;13.25;60.72;102283.41;4971935;28;114559;-67
2021/09/30 00:10:10;;;;;;;4.60;2.13;;;;;;;13.23;60.73;102285.25;4972528;28;124847;-67
2021/09/30 00:12:45;;;;;;;4.28;2.20;;;;;;;13.20;60.84;102291.56;4974136;28;123879;-67
2021/09/30 00:15:26;;;;;;;2.70;2.23;;;;;;;13.20;60.80;102295.97;4955324;28;114573;-67
2021/09/30 00:47:58;;;;;;;4.68;2.25;;;;;;;12.99;60.89;102325.00;4957163;28;115212;-67
2021/09/30 00:50:46;;;;;;;;;;;;;;;12.96;60.64;102325.13;4955814;28;114024;-67
2021/09/30 01:19:45;;;;;;;6.30;2.22;;;;;;;12.77;60.88;102329.25;4942963;28;123005;-67
2021/09/30 01:34:05;;;;;;;5.18;2.20;;;;;;;12.68;60.83;102334.84;4955888;28;113147;-67
2021/09/30 02:26:35;;;;;;;6.57;1.67;;;;;;;12.44;61.11;102343.50;4940986;28;122756;-67
2021/09/30 02:58:04;;;;;;;9.38;2.22;;;;;;;12.42;61.10;102341.81;4943931;28;114325;-67
2021/09/30 03:00:00;;;;;;;3.97;1.90;;;;;;;12.33;60.98;102350.03;4953623;28;122873;-67
2021/09/30 03:02:38;;;;;;;5.47;1.90;;;;;;;12.33;61.13;102350.03;4951779;28;117045;-68
2021/09/30 03:05:06;;;;;;;3.17;1.58;;;;;;;12.33;61.10;102355.34;4966933;28;113458;-67
2021/09/30 03:07:33;;;;;;;3.50;1.52;;;;;;;12.32;61.09;102358.91;4953579;28;123165;-67
2021/09/30 03:10:03;;;;;;;6.32;2.10;;;;;;;12.31;61.12;102365.16;4953609;28;122787;-67
2021/09/30 03:12:36;;;;;;;5.10;2.08;;;;;;;12.31;61.17;102366.00;4955986;28;113470;-67
2021/09/30 03:15:28;;;;;;;6.57;2.05;;;;;;;12.30;61.18;102366.94;4957905;28;113116;-67
2021/09/30 03:23:22;;;;;;;3.40;2.00;;;;;;;12.26;61.17;102371.47;4972237;28;114873;-67
2021/09/30 03:25:51;;;;;;;5.35;2.10;;;;;;;12.26;60.96;102370.56;4956265;28;113437;-67
2021/09/30 03:28:23;;;;;;;3.90;1.75;;;;;;;12.24;60.99;102378.59;4957098;28;123467;-67
2021/09/30 03:30:55;;;;;;;7.38;1.98;;;;;;;12.23;61.20;102379.50;4974578;28;124450;-66
2021/09/30 03:33:24;;;;;;;4.53;1.75;;;;;;;12.21;61.07;102373.38;4954073;28;114586;-67
2021/09/30 03:36:09;;;;;;;;;;;;;;;12.21;61.01;102384.00;4957936;28;114010;-67
2021/09/30 03:38:38;;;;;;;5.00;2.10;;;;;;;12.22;60.98;102384.84;4953384;28;123301;-67
2021/09/30 03:41:07;;;;;;;4.78;1.75;;;;;;;12.19;61.03;102375.19;4958813;28;123219;-67
2021/09/30 03:43:35;;;;;;;6.13;2.10;;;;;;;12.18;60.96;102378.75;4965094;28;113386;-67
2021/09/30 03:46:03;;;;;;;6.50;2.15;;;;;;;12.16;61.04;102380.59;4957187;28;113628;-67
2021/09/30 03:48:50;;;;;;;5.70;2.00;;;;;;;12.15;61.06;102378.84;4955474;28;123239;-67
2021/09/30 03:51:29;;;;;;;4.68;1.80;;;;;;;12.14;61.22;102382.41;4972522;28;123863;-67
2021/09/30 03:57:07;;;;;;;7.20;2.58;;;;;;;12.13;60.90;102391.31;4922984;28;113149;-67
2021/09/30 03:59:34;;;;;;;7.25;2.20;;;;;;;12.13;61.23;102396.63;4951062;28;123085;-67
2021/09/30 04:02:15;;;;;;;6.05;2.08;;;;;;;12.12;60.90;102404.63;4956980;28;127233;-67
2021/09/30 04:04:43;;;;;;;4.47;1.95;;;;;;;12.12;60.91;102410.78;4956498;28;113133;-67
2021/09/30 04:07:10;;;;;;;7.38;2.10;;;;;;;12.11;61.14;102409.06;4956970;28;112988;-67
2021/09/30 04:09:40;;;;;;;6.18;1.90;;;;;;;12.11;61.11;102414.38;4948781;28;123026;-67
2021/09/30 04:12:12;;;;;;;5.45;1.98;;;;;;;12.09;60.98;102416.19;4962856;28;123084;-67
2021/09/30 04:14:41;;;;;;;4.38;1.67;;;;;;;12.08;60.95;102414.44;4950731;28;113760;-67
2021/09/30 04:17:10;;;;;;;5.82;1.80;;;;;;;12.07;61.02;102415.34;4956916;28;113244;-67
2021/09/30 04:19:39;;;;;;;4.18;1.95;;;;;;;12.05;60.99;102409.22;4956071;28;123209;-67
2021/09/30 04:22:06;;;;;;;6.68;1.90;;;;;;;12.03;60.95;102416.34;4956239;28;122904;-67
2021/09/30 04:24:34;;;;;;;6.05;2.08;;;;;;;12.03;60.98;102416.34;4956450;28;114361;-67
2021/09/30 04:27:05;;;;;;;6.22;1.80;;;;;;;12.01;61.04;102423.47;4952754;28;114121;-67
2021/09/30 04:29:32;;;;;;;4.38;1.90;;;;;;;12.02;61.07;102425.25;4949937;28;123248;-67
2021/09/30 04:31:59;;;;;;;5.15;1.83;;;;;;;12.00;61.19;102427.94;4958174;28;123128;-67
2021/09/30 04:34:26;;;;;;;4.85;1.60;;;;;;;12.01;60.94;102428.78;4957136;28;113369;-67
2021/09/30 04:36:54;;;;;;;6.15;2.03;;;;;;;12.02;61.11;102435.88;4974090;28;114410;-67
2021/09/30 04:39:22;;;;;;;6.95;1.90;;;;;;;12.01;61.02;102434.09;4948432;28;122855;-67
2021/09/30 04:41:51;;;;;;;6.03;1.63;;;;;;;12.00;60.97;102432.38;4945567;28;122877;-67
2021/09/30 04:44:20;;;;;;;6.18;1.77;;;;;;;11.98;61.13;102431.50;4954946;28;113488;-67
2021/09/30 04:46:51;;;;;;;5.05;2.00;;;;;;;11.97;60.79;102437.75;4954705;28;113129;-67
2021/09/30 04:49:43;;;;;;;4.07;1.60;;;;;;;11.94;61.06;102438.72;4959863;28;123550;-67
2021/09/30 04:52:10;;;;;;;5.03;1.70;;;;;;;11.94;61.11;102438.72;4956301;28;123640;-67
2021/09/30 04:54:38;;;;;;;5.47;1.67;;;;;;;11.93;60.99;102444.91;4974020;28;114811;-67
2021/09/30 04:57:06;;;;;;;5.30;1.73;;;;;;;11.91;60.89;102438.78;4949230;28;114102;-67
2021/09/30 04:59:36;;;;;;;4.88;1.55;;;;;;;11.91;61.05;102437.91;4955165;28;123320;-67
2021/09/30 05:02:38;;;;;;;7.40;1.73;;;;;;;11.89;61.01;102440.56;4945949;28;124550;-66
2021/09/30 05:05:06;;;;;;;6.07;1.77;;;;;;;11.90;61.10;102444.13;4939781;28;112999;-67
2021/09/30 05:07:34;;;;;;;4.60;1.40;;;;;;;11.86;61.11;102446.81;4958289;28;113164;-67
2021/09/30 05:10:03;;;;;;;4.38;1.55;;;;;;;11.86;61.06;102449.47;4955351;28;123723;-66
2021/09/30 05:12:31;;;;;;;4.47;1.77;;;;;;;11.86;61.04;102452.13;4955660;28;123321;-67
2021/09/30 05:14:58;;;;;;;5.47;1.90;;;;;;;11.85;61.00;102442.44;4955159;28;114699;-67
2021/09/30 05:17:27;;;;;;;5.20;1.77;;;;;;;11.85;61.01;102444.22;4956300;28;114210;-67
2021/09/30 05:19:55;;;;;;;5.50;1.55;;;;;;;11.85;61.06;102445.09;4947785;28;123764;-66
2021/09/30 05:22:23;;;;;;;4.90;1.58;;;;;;;11.85;61.10;102445.09;4959454;28;122935;-66
2021/09/30 05:24:51;;;;;;;4.45;1.38;;;;;;;11.85;61.03;102455.69;4955734;28;113288;-66
2021/09/30 05:27:18;;;;;;;4.47;1.40;;;;;;;11.85;60.86;102450.38;4954773;28;113392;-66
2021/09/30 05:29:45;;;;;;;4.40;1.50;;;;;;;11.85;61.06;102461.00;4950986;28;122909;-66
2021/09/30 05:32:14;;;;;;;4.28;1.45;;;;;;;11.84;60.97;102455.72;4952639;28;122876;-66
2021/09/30 05:35:00;;;;;;;;;;;;;;;11.81;60.83;102459.34;4944266;28;113894;-67
2021/09/30 05:37:34;;;;;;;5.57;1.60;;;;;;;11.82;60.86;102461.06;4966327;28;117222;-66
2021/09/30 05:40:03;;;;;;;4.20;1.50;;;;;;;11.81;60.96;102459.34;4954643;28;123168;-67
2021/09/30 05:42:30;;;;;;;4.88;1.73;;;;;;;11.81;61.03;102458.44;4973103;28;124014;-67
2021/09/30 05:45:05;;;;;;;5.18;1.38;;;;;;;11.80;60.85;102452.28;4971215;28;114570;-67
2021/09/30 05:47:33;;;;;;;6.07;1.65;;;;;;;11.81;61.03;102456.69;4936790;28;112888;-66
2021/09/30 05:50:01;;;;;;;3.92;1.30;;;;;;;11.79;61.04;102450.56;4955364;28;123202;-66
2021/09/30 05:52:44;;;;;;;6.47;1.58;;;;;;;11.79;60.83;102453.19;4973576;28;124602;-66
2021/09/30 05:55:32;;;;;;;3.75;1.60;;;;;;;11.80;60.84;102452.28;4942654;28;114816;-66
2021/09/30 05:58:03;;;;;;;4.43;1.60;;;;;;;11.80;60.97;102446.97;4955993;28;113031;-66
2021/09/30 06:00:37;;;;;;;4.68;1.50;;;;;;;11.81;60.85;102448.72;4962127;28;124247;-66
2021/09/30 06:11:18;;;;;;;5.28;1.38;;;;;;;11.82;61.13;102439.84;4948415;28;123898;-66
2021/09/30 06:13:52;;;;;;;5.93;1.45;;;;;;;11.82;61.04;102445.16;4955831;28;124036;-67
2021/09/30 06:16:23;;;;;;;7.57;1.48;;;;;;;11.83;60.84;102452.22;4965984;28;114312;-67
2021/09/30 06:18:56;;;;;;;3.67;1.48;;;;;;;11.82;61.05;102450.44;4954626;28;116931;-66
2021/09/30 06:21:30;;;;;;;6.28;1.45;;;;;;;11.83;60.94;102457.53;4943021;28;123160;-66
2021/09/30 06:23:58;;;;;;;5.18;1.63;;;;;;;11.84;60.95;102453.94;4949107;28;123259;-66
2021/09/30 06:26:28;;;;;;;3.92;1.38;;;;;;;11.85;61.04;102454.84;4955100;28;113595;-66
2021/09/30 06:29:15;;;;;;;4.82;1.60;;;;;;;11.86;61.02;102459.22;4947605;28;113597;-66
2021/09/30 06:31:43;;;;;;;3.67;1.30;;;;;;;11.85;61.10;102445.09;4955188;28;123914;-67
2021/09/30 06:34:29;;;;;;;;;;;;;;;11.86;61.14;102465.38;4953465;28;124768;-66
2021/09/30 06:37:08;;;;;;;4.45;1.38;;;;;;;11.93;61.08;102457.34;4968126;28;113869;-66
2021/09/30 06:39:37;;;;;;;4.82;1.60;;;;;;;11.97;61.12;102453.69;4954127;28;112414;-66
2021/09/30 06:42:06;;;;;;;6.32;1.48;;;;;;;12.03;61.28;102453.53;4969510;28;124295;-66
2021/09/30 06:44:45;;;;;;;6.85;1.48;;;;;;;12.11;61.29;102459.53;4973295;28;124636;-66
2021/09/30 06:47:41;;;;;;;6.88;1.65;;;;;;;12.19;61.47;102465.50;4972384;28;114358;-66
2021/09/30 06:50:27;;;;;;;8.17;1.70;;;;;;;12.25;61.02;102465.34;4954940;28;113409;-67
2021/09/30 06:52:54;;;;;;;4.28;1.52;;;;;;;12.32;61.40;102465.16;4972530;28;124721;-67
2021/09/30 06:55:43;;;;;;;3.67;1.58;;;;;;;12.40;61.36;102479.16;4971594;28;124058;-66
2021/09/30 06:58:42;;;;;;;6.45;1.67;;;;;;;12.49;61.34;102473.59;4935303;28;115959;-66
2021/09/30 07:01:33;;;;;;;4.97;1.40;;;;;;;12.58;61.18;102470.69;4926125;28;115510;-66
2021/09/30 07:04:13;;;;;;;5.25;1.80;;;;;;;12.69;61.33;102474.81;4972611;28;124254;-66
2021/09/30 07:06:56;;;;;;;8.50;2.15;;;;;;;12.78;61.31;102469.25;4953618;28;125560;-66
2021/09/30 07:09:23;;;;;;;3.65;1.33;;;;;;;12.88;61.44;102470.72;4958850;28;114345;-66
2021/09/30 07:11:50;;;;;;;5.75;1.55;;;;;;;12.99;61.34;102467.75;4970091;28;114300;-66
2021/09/30 07:14:17;;;;;;;4.95;1.73;;;;;;;13.11;61.29;102477.16;4972006;28;124742;-66
2021/09/30 07:16:45;;;;;;;3.10;1.52;;;;;;;13.23;61.13;102487.47;4971960;28;124491;-66
2021/09/30 07:19:12;;;;;;;4.10;1.60;;;;;;;13.32;60.94;102484.56;4967569;28;114589;-66
2021/09/30 07:21:39;;;;;;;5.32;1.85;;;;;;;13.41;60.79;102481.63;4954212;28;112736;-66
2021/09/30 07:24:06;;;;;;;3.80;1.30;;;;;;;13.49;60.85;102483.19;4961710;28;124342;-66
2021/09/30 07:26:34;;;;;;;3.90;1.50;;;;;;;13.57;60.78;102471.34;4965282;28;124129;-66
2021/09/30 07:29:01;;;;;;;4.05;1.50;;;;;;;13.64;60.57;102461.41;4971201;28;114859;-66
2021/09/30 07:31:28;;;;;;;6.05;2.00;;;;;;;13.72;60.47;102470.00;4970301;28;113991;-66
2021/09/30 07:33:56;;;;;;;3.70;1.52;;;;;;;13.78;60.27;102469.78;4969275;28;124202;-66
2021/09/30 07:36:24;;;;;;;5.85;1.45;;;;;;;13.83;60.26;102472.31;4960356;28;122924;-67
2021/09/30 07:38:52;;;;;;;5.63;2.05;;;;;;;13.90;60.20;102472.97;4970701;28;114294;-67
2021/09/30 07:41:19;;;;;;;6.38;1.50;;;;;;;13.95;60.02;102465.72;4969774;28;114119;-66
2021/09/30 07:43:46;;;;;;;4.72;1.63;;;;;;;14.00;59.99;102479.75;4969120;28;124821;-66
2021/09/30 07:46:13;;;;;;;5.00;1.52;;;;;;;14.06;59.94;102479.53;4951604;28;122977;-66
2021/09/30 07:48:40;;;;;;;5.82;1.52;;;;;;;14.12;59.76;102474.00;4962460;28;115423;-66
2021/09/30 07:51:08;;;;;;;5.72;1.90;;;;;;;14.18;59.93;102481.81;4971062;28;115223;-66
2021/09/30 07:53:35;;;;;;;9.77;2.00;;;;;;;14.26;59.88;102480.66;4951283;28;124143;-66
2021/09/30 07:56:03;;;;;;;4.82;1.77;;;;;;;14.33;59.69;102476.84;4963241;28;124675;-66
2021/09/30 07:58:30;;;;;;;5.30;1.80;;;;;;;14.41;59.62;102483.69;4971145;28;114316;-65
2021/09/30 08:00:59;;;;;;;6.95;1.88;;;;;;;14.48;59.71;102480.78;4972492;28;114268;-67
2021/09/30 08:03:29;;;;;;;6.53;1.80;;;;;;;14.53;59.25;102485.03;4972148;28;124610;-66
2021/09/30 08:05:56;;;;;;;4.40;1.88;;;;;;;14.56;59.33;102484.94;4974549;28;124489;-66
2021/09/30 08:08:23;;;;;;;4.05;1.67;;;;;;;14.57;59.12;102488.50;4956287;28;113215;-66
2021/09/30 08:10:51;;;;;;;6.65;1.60;;;;;;;14.57;59.04;102492.03;4972664;28;114059;-66
2021/09/30 08:13:18;;;;;;;3.55;1.92;;;;;;;14.59;58.86;102495.50;4964459;28;124574;-66
2021/09/30 08:15:45;;;;;;;6.13;1.70;;;;;;;14.60;58.87;102491.94;4972940;28;123769;-66
2021/09/30 08:18:12;;;;;;;5.00;1.67;;;;;;;14.63;58.92;102496.28;4951747;28;114555;-66
2021/09/30 08:20:43;;;;;;;7.03;1.58;;;;;;;14.68;58.92;102493.47;4961562;28;113247;-66
2021/09/30 08:23:14;;;;;;;5.13;1.40;;;;;;;14.75;59.02;102500.31;4965998;28;124270;-66
2021/09/30 08:25:42;;;;;;;5.00;1.83;;;;;;;14.83;59.13;102506.25;4966620;28;123865;-66
2021/09/30 08:28:13;;;;;;;5.75;1.60;;;;;;;14.93;59.07;102510.28;4967987;28;114316;-66
2021/09/30 08:30:52;;;;;;;4.05;1.55;;;;;;;15.05;58.93;102502.75;4973913;28;113304;-65
2021/09/30 08:33:22;;;;;;;5.20;1.50;;;;;;;15.15;59.05;102509.50;4950251;28;123344;-65
2021/09/30 08:35:50;;;;;;;6.93;1.73;;;;;;;15.26;59.09;102501.97;4974807;28;124748;-66
2021/09/30 08:38:19;;;;;;;5.13;1.98;;;;;;;15.35;58.73;102506.97;4957728;28;114428;-65
2021/09/30 08:40:49;;;;;;;4.18;1.90;;;;;;;15.44;58.71;102507.53;4947813;28;114535;-65
2021/09/30 08:43:19;;;;;;;4.20;1.63;;;;;;;15.52;58.71;102508.09;4962636;28;123887;-66
2021/09/30 08:45:46;;;;;;;4.78;1.73;;;;;;;15.62;58.61;102509.47;4955229;28;124617;-66
2021/09/30 08:48:13;;;;;;;6.82;1.80;;;;;;;15.74;58.51;102519.69;4974070;28;114152;-65
2021/09/30 08:50:40;;;;;;;5.57;1.50;;;;;;;15.85;58.54;102516.59;4953600;28;113339;-66
2021/09/30 08:53:10;;;;;;;4.93;1.50;;;;;;;15.97;58.25;102523.25;4970826;28;124016;-66
2021/09/30 08:55:40;;;;;;;9.05;2.30;;;;;;;16.06;58.42;102504.16;4956534;28;124670;-66
2021/09/30 08:58:08;;;;;;;5.70;1.50;;;;;;;16.20;58.30;102510.72;4971593;28;114019;-66
2021/09/30 09:00:38;;;;;;;6.95;1.63;;;;;;;16.33;58.07;102509.28;4971285;28;113919;-66
2021/09/30 09:03:06;;;;;;;5.03;1.60;;;;;;;16.42;57.76;102511.56;4971496;28;124052;-65
2021/09/30 09:05:37;;;;;;;6.32;1.45;;;;;;;16.52;57.73;102518.25;4970502;28;123858;-65
2021/09/30 09:08:07;;;;;;;5.22;1.63;;;;;;;16.63;57.42;102514.22;4966665;28;114824;-65
2021/09/30 09:10:42;;;;;;;5.65;1.38;;;;;;;16.73;57.04;102516.44;4970948;28;114263;-65
2021/09/30 09:13:13;;;;;;;4.45;1.83;;;;;;;16.81;56.85;102502.72;4965984;28;124481;-66
2021/09/30 09:15:48;;;;;;;5.82;1.58;;;;;;;16.90;56.86;102502.34;4972160;28;124228;-65
2021/09/30 09:18:27;;;;;;;4.93;1.77;;;;;;;17.03;56.71;102507.16;4972644;28;114494;-66
2021/09/30 09:21:10;;;;;;;6.93;1.75;;;;;;;17.13;56.63;102503.09;4973937;28;114011;-65
2021/09/30 09:23:52;;;;;;;6.75;1.42;;;;;;;17.21;56.28;102506.28;4964108;28;124698;-66
2021/09/30 09:26:28;;;;;;;3.80;1.20;;;;;;;17.29;56.23;102498.78;4972536;28;124025;-65
2021/09/30 09:29:21;;;;;;;6.75;1.98;;;;;;;17.41;56.40;102508.03;4971751;28;115801;-65
2021/09/30 09:31:52;;;;;;;3.85;1.30;;;;;;;17.53;55.90;102506.59;4964619;28;115359;-65
2021/09/30 09:34:32;;;;;;;5.05;1.30;;;;;;;17.61;55.54;102506.22;4970732;28;124163;-65
2021/09/30 09:39:57;;;;;;;5.30;1.10;;;;;;;17.73;55.14;102502.09;4968220;28;114657;-66
2021/09/30 09:42:30;;;;;;;4.85;1.30;;;;;;;17.76;54.86;102496.56;4971719;28;113629;-66
2021/09/30 09:45:04;;;;;;;7.20;1.20;;;;;;;17.78;54.46;102500.03;4970909;28;124035;-65
2021/09/30 09:47:36;;;;;;;3.00;1.33;;;;;;;17.78;54.38;102500.03;4965712;28;124094;-66
2021/09/30 09:50:22;;;;;;;8.48;1.30;;;;;;;17.80;54.36;102492.78;4966684;28;114637;-65
2021/09/30 09:52:51;;;;;;;5.90;1.23;;;;;;;17.80;54.10;102492.78;4973389;28;113726;-65
2021/09/30 09:55:31;;;;;;;2.92;1.40;;;;;;;17.78;53.93;102497.34;4970591;28;124108;-66
2021/09/30 09:58:05;;;;;;;4.32;1.40;;;;;;;17.78;53.81;102500.03;4963424;28;124687;-66
2021/09/30 10:01:02;;;;;;;5.40;1.20;;;;;;;17.77;53.74;102509.88;4970362;28;114483;-65
2021/09/30 10:03:32;;;;;;;5.88;1.30;;;;;;;17.78;53.86;102505.38;4964606;28;113789;-65
2021/09/30 10:06:02;;;;;;;4.13;1.00;;;;;;;17.80;53.73;102503.50;4954235;28;123949;-66
2021/09/30 10:08:31;;;;;;;3.75;1.08;;;;;;;17.82;53.83;102502.50;4971658;28;124581;-65
2021/09/30 10:11:00;;;;;;;2.58;1.05;;;;;;;17.84;53.48;102499.75;4971307;28;114164;-65
2021/09/30 10:13:31;;;;;;;4.45;1.20;;;;;;;17.84;53.44;102492.59;4955448;28;113386;-65
2021/09/30 10:15:58;;;;;;;3.03;0.90;;;;;;;17.85;53.47;102490.78;4971403;28;124097;-65
2021/09/30 10:18:27;;;;;;;3.67;1.25;;;;;;;17.90;53.14;102488.75;4962669;28;123677;-66
2021/09/30 10:20:56;;;;;;;3.17;0.90;;;;;;;17.92;52.66;102486.00;4954895;28;114145;-65
2021/09/30 10:23:29;;;;;;;2.28;0.93;;;;;;;17.92;52.11;102480.63;4970465;28;115131;-65
2021/09/30 10:26:08;;;;;;;3.17;0.80;;;;;;;17.92;51.90;102481.50;4972401;28;124213;-65
2021/09/30 10:28:41;;;;;;;4.10;0.75;;;;;;;17.91;51.68;102485.09;4969618;28;124254;-65
2021/09/30 10:31:27;;;;;;;3.25;0.90;;;;;;;17.90;51.77;102473.53;4952854;28;113197;-65
2021/09/30 10:33:57;;;;;;;5.70;1.13;;;;;;;17.94;51.73;102468.88;4970448;28;113936;-65
2021/09/30 10:36:51;;;;;;;4.63;1.10;;;;;;;18.00;52.09;102463.22;4964881;28;124426;-65
2021/09/30 10:39:25;;;;;;;2.50;1.00;;;;;;;18.06;51.31;102462.91;4953302;28;124182;-65
2021/09/30 10:42:04;;;;;;;4.87;0.90;;;;;;;18.08;51.21;102466.38;4965594;28;114295;-66
2021/09/30 10:44:34;;;;;;;3.03;0.70;;;;;;;18.11;51.23;102464.50;4957067;28;113921;-66
2021/09/30 10:47:05;;;;;;;3.28;0.95;;;;;;;18.14;51.13;102464.31;4951375;28;123939;-65
2021/09/30 10:49:42;;;;;;;5.82;0.90;;;;;;;18.17;51.01;102466.84;4966526;28;124053;-65
2021/09/30 10:52:21;;;;;;;3.35;0.80;;;;;;;18.18;50.78;102477.50;4954953;28;113109;-65
2021/09/30 10:55:04;;;;;;;2.58;0.90;;;;;;;18.20;50.88;102458.66;4969653;28;114718;-65
2021/09/30 10:57:46;;;;;;;3.85;1.00;;;;;;;18.21;50.84;102466.59;4962607;28;124750;-66
2021/09/30 11:00:16;;;;;;;4.55;0.95;;;;;;;18.24;50.70;102465.59;4968865;28;124312;-65
2021/09/30 11:02:59;;;;;;;1.75;0.70;;;;;;;18.29;50.91;102468.91;4957205;28;114145;-66
2021/09/30 11:05:30;;;;;;;2.83;0.80;;;;;;;18.35;50.80;102457.84;4964737;28;114710;-66
2021/09/30 11:08:26;;;;;;;2.53;1.00;;;;;;;18.43;51.07;102460.13;4963625;28;124114;-66
2021/09/30 11:11:12;;;;;;;3.38;0.80;;;;;;;18.51;50.78;102462.41;4967580;28;124231;-66
2021/09/30 11:13:39;;;;;;;;;;;;;;;18.54;51.35;102456.91;4968745;28;115347;-66
2021/09/30 11:16:18;;;;;;;5.45;1.52;;;;;;;18.56;50.55;102455.00;4967882;28;114956;-66
2021/09/30 11:18:54;;;;;;;2.70;0.75;;;;;;;18.56;50.28;102460.38;4967513;28;124805;-66
2021/09/30 11:21:30;;;;;;;3.42;0.80;;;;;;;18.54;49.93;102462.25;4969175;28;123909;-66
2021/09/30 11:24:02;;;;;;;4.70;0.90;;;;;;;18.54;49.67;102467.63;4962615;28;114338;-66
2021/09/30 11:26:32;;;;;;;2.75;0.70;;;;;;;18.53;49.35;102460.50;4971545;28;113509;-66
2021/09/30 11:29:21;;;;;;;3.60;0.68;;;;;;;18.53;49.78;102465.88;4961861;28;124686;-66
2021/09/30 11:32:08;;;;;;;3.60;0.82;;;;;;;18.55;49.63;102461.31;4966524;28;124066;-66
2021/09/30 11:34:49;;;;;;;1.95;0.73;;;;;;;18.57;49.54;102456.72;4975811;28;114522;-66
2021/09/30 11:37:29;;;;;;;3.97;0.90;;;;;;;18.57;49.21;102451.34;4973576;28;114463;-66
2021/09/30 11:39:58;;;;;;;4.15;0.90;;;;;;;18.60;49.19;102451.19;4972870;28;124194;-66
2021/09/30 11:42:55;;;;;;;4.07;0.80;;;;;;;18.58;49.25;102453.97;4974002;28;124334;-65
2021/09/30 11:45:27;;;;;;;3.10;0.93;;;;;;;18.59;48.83;102449.44;4951416;28;114184;-66
2021/09/30 11:48:06;;;;;;;4.03;0.80;;;;;;;18.59;49.01;102454.81;4965814;28;113777;-66
2021/09/30 11:50:34;;;;;;;1.77;0.75;;;;;;;18.59;48.90;102444.09;4973721;28;124193;-65
2021/09/30 11:53:08;;;;;;;2.47;0.73;;;;;;;18.63;48.71;102443.00;4974216;28;124127;-66
2021/09/30 11:55:41;;;;;;;2.53;0.90;;;;;;;18.66;49.02;102445.50;4975271;28;114326;-65
2021/09/30 11:58:12;;;;;;;2.83;0.98;;;;;;;18.68;48.72;102439.13;4963916;28;114488;-65
2021/09/30 12:00:45;;;;;;;3.92;0.90;;;;;;;18.70;48.65;102430.94;4973215;28;124853;-65
2021/09/30 12:03:18;;;;;;;4.15;0.90;;;;;;;18.74;48.81;102426.28;4972304;28;124291;-65
2021/09/30 12:05:45;;;;;;;2.40;0.77;;;;;;;18.77;48.91;102421.63;4970029;28;115218;-65
2021/09/30 12:08:15;;;;;;;4.78;0.90;;;;;;;18.79;48.51;102425.09;4967261;28;115324;-65
2021/09/30 12:10:42;;;;;;;5.38;1.00;;;;;;;18.81;48.75;102425.91;4956856;28;123667;-66
2021/09/30 12:13:15;;;;;;;2.95;0.90;;;;;;;18.81;48.29;102417.84;4954724;28;124147;-65
2021/09/30 12:15:42;;;;;;;4.70;0.90;;;;;;;18.83;48.18;102410.56;4973375;28;114763;-65
2021/09/30 12:18:23;;;;;;;3.28;0.90;;;;;;;18.81;47.98;102412.47;4964853;28;114129;-65
2021/09/30 12:20:57;;;;;;;3.58;0.82;;;;;;;18.82;48.11;102414.22;4972416;28;124078;-65
2021/09/30 12:23:26;;;;;;;3.03;0.70;;;;;;;18.85;48.23;102407.81;4964972;28;124328;-65
2021/09/30 12:25:54;;;;;;;4.45;0.80;;;;;;;18.90;48.05;102404.91;4968437;28;114438;-65
2021/09/30 12:28:22;;;;;;;3.08;1.17;;;;;;;18.94;48.13;102409.13;4973698;28;113947;-65
2021/09/30 12:30:49;;;;;;;5.20;1.50;;;;;;;18.99;48.26;102404.38;4971342;28;124099;-65
2021/09/30 12:33:16;;;;;;;4.00;0.98;;;;;;;19.04;48.13;102396.91;4954316;28;123980;-65
2021/09/30 12:35:44;;;;;;;4.28;1.10;;;;;;;19.09;47.99;102400.22;4973458;28;115041;-65
2021/09/30 12:38:16;;;;;;;4.00;0.88;;;;;;;19.10;47.89;102391.22;4971252;28;114012;-65
2021/09/30 12:40:46;;;;;;;5.05;1.05;;;;;;;19.11;47.72;102392.94;4963765;28;123941;-65
2021/09/30 12:43:16;;;;;;;4.90;1.05;;;;;;;19.12;47.91;102389.31;4971416;28;124609;-65
2021/09/30 12:45:57;;;;;;;4.55;0.98;;;;;;;19.16;47.89;102390.88;4974440;28;114732;-65
2021/09/30 12:48:29;;;;;;;4.93;1.15;;;;;;;19.18;47.89;102383.59;4966297;28;113762;-65
2021/09/30 12:51:07;;;;;;;4.78;1.05;;;;;;;19.22;47.72;102378.91;4971471;28;124078;-65
2021/09/30 12:53:50;;;;;;;3.00;0.93;;;;;;;19.24;47.64;102383.22;4970431;28;124449;-65
2021/09/30 12:56:26;;;;;;;2.22;0.90;;;;;;;19.29;47.62;102379.41;4969209;28;115491;-65
2021/09/30 12:58:54;;;;;;;5.55;1.10;;;;;;;19.31;47.83;102377.50;4970843;28;115721;-65
2021/09/30 13:01:34;;;;;;;3.50;1.00;;;;;;;19.35;48.05;102373.69;4971273;28;124408;-65
2021/09/30 13:04:21;;;;;;;4.95;1.15;;;;;;;19.38;48.05;102368.13;4971069;28;124190;-65
2021/09/30 13:06:51;;;;;;;4.70;1.10;;;;;;;19.43;47.61;102360.69;4966885;28;114502;-65
2021/09/30 13:09:29;;;;;;;5.07;0.98;;;;;;;19.44;47.82;102367.81;4955563;28;112957;-65
2021/09/30 13:11:58;;;;;;;3.92;0.95;;;;;;;19.43;47.63;102360.69;4965948;28;124597;-65
2021/09/30 13:14:30;;;;;;;4.65;1.20;;;;;;;19.40;47.38;102366.22;4973762;28;124258;-65
2021/09/30 13:17:16;;;;;;;4.72;1.20;;;;;;;19.35;47.33;102368.31;4974230;28;114110;-65
2021/09/30 13:19:46;;;;;;;4.72;1.23;;;;;;;19.30;47.05;102365.03;4955955;28;113090;-65
2021/09/30 13:22:37;;;;;;;4.85;1.27;;;;;;;19.26;47.16;102365.19;4972067;28;123982;-65
2021/09/30 13:25:11;;;;;;;3.67;1.30;;;;;;;19.22;47.41;102363.66;4968032;28;123989;-65
2021/09/30 13:27:40;;;;;;;5.70;1.30;;;;;;;19.19;47.35;102363.84;4970449;28;114288;-65
2021/09/30 13:30:11;;;;;;;3.08;1.20;;;;;;;19.16;47.10;102353.25;4966492;28;113801;-65
2021/09/30 13:32:40;;;;;;;3.83;1.30;;;;;;;19.11;47.03;102349.97;4972192;28;123912;-65
2021/09/30 13:35:08;;;;;;;2.58;1.10;;;;;;;19.07;46.98;102351.09;4955879;28;123051;-65
2021/09/30 13:37:36;;;;;;;4.30;1.27;;;;;;;19.02;47.01;102345.13;4957457;28;114638;-65
2021/09/30 13:40:06;;;;;;;2.30;1.00;;;;;;;18.98;47.08;102338.19;4965771;28;114051;-65
2021/09/30 13:42:34;;;;;;;3.53;1.02;;;;;;;18.95;47.45;102339.25;4969578;28;124044;-65
2021/09/30 13:45:08;;;;;;;6.47;1.10;;;;;;;18.97;47.49;102333.78;4972156;28;123713;-65
2021/09/30 13:47:36;;;;;;;3.65;1.20;;;;;;;18.99;47.61;102329.19;4965054;28;115486;-65
2021/09/30 13:50:05;;;;;;;5.65;0.75;;;;;;;18.98;47.35;102332.81;4970280;28;115777;-65
2021/09/30 13:52:32;;;;;;;4.82;0.82;;;;;;;18.94;47.29;102324.06;4967248;28;123870;-65
2021/09/30 13:54:59;;;;;;;5.13;0.80;;;;;;;18.91;47.36;102320.69;4952627;28;124736;-65
2021/09/30 13:57:27;;;;;;;7.18;1.10;;;;;;;18.90;47.66;102308.25;4970472;28;114416;-65
2021/09/30 13:59:54;;;;;;;3.28;0.80;;;;;;;18.91;47.56;102309.94;4970030;28;114476;-65
2021/09/30 14:02:41;;;;;;;3.03;0.70;;;;;;;18.90;47.49;102302.88;4956068;28;123213;-65
2021/09/30 14:05:12;;;;;;;6.05;0.85;;;;;;;18.90;47.42;102297.50;4971357;28;124285;-66
2021/09/30 14:07:41;;;;;;;4.25;1.00;;;;;;;18.91;47.55;102299.22;4970585;28;114358;-65
2021/09/30 14:10:16;;;;;;;5.38;1.10;;;;;;;18.92;47.72;102296.44;4954968;28;112847;-66
2021/09/30 14:12:46;;;;;;;4.22;1.20;;;;;;;18.95;47.82;102300.75;4938980;28;125253;-65
2021/09/30 14:15:14;;;;;;;4.18;1.08;;;;;;;18.96;47.63;102297.13;4970256;28;123629;-65
2021/09/30 14:17:44;;;;;;;4.55;1.00;;;;;;;18.95;47.50;102290.03;4963769;28;114207;-66
2021/09/30 14:20:17;;;;;;;3.85;1.10;;;;;;;18.93;47.69;102291.94;4955429;28;113514;-65
2021/09/30 14:22:44;;;;;;;4.22;1.02;;;;;;;18.94;47.69;102288.31;4955210;28;123126;-65
2021/09/30 14:25:11;;;;;;;4.00;1.13;;;;;;;18.95;47.63;102284.66;4971580;28;124038;-65
2021/09/30 14:27:38;;;;;;;3.03;1.10;;;;;;;18.98;47.80;102284.50;4971704;28;115011;-65
2021/09/30 14:30:08;;;;;;;3.90;1.00;;;;;;;19.01;47.79;102276.28;4944074;28;114698;-65